sensor_id;sensor_type;location;lat;lon;timestamp;P1;durP1;ratioP1;P2;durP2;ratioP2
56752;SDS011;42627;42.646;23.642;2024-02-15T00:00:23;20.02;;;8.10;;
56752;SDS011;42627;42.646;23.642;2024-02-15T00:02:27;17.27;;;8.05;;
56752;SDS011;42627;42.646;23.642;2024-02-15T00:04:28;14.68;;;7.50;;
56752;SDS011;42627;42.646;23.642;2024-02-15T00:06:29;15.13;;;8.10;;
56752;SDS011;42627;42.646;23.642;2024-02-15T00:08:30;22.17;;;8.30;;
56752;SDS011;42627;42.646;23.642;2024-02-15T00:10:31;15.43;;;7.43;;
56752;SDS011;42627;42.646;23.642;2024-02-15T00:17:49;20.17;;;9.05;;
56752;SDS011;42627;42.646;23.642;2024-02-15T00:19:50;21.90;;;8.23;;
56752;SDS011;42627;42.646;23.642;2024-02-15T00:21:51;17.65;;;8.70;;
56752;SDS011;42627;42.646;23.642;2024-02-15T00:23:52;16.20;;;6.88;;
56752;SDS011;42627;42.646;23.642;2024-02-15T00:26:04;21.58;;;9.57;;
56752;SDS011;42627;42.646;23.642;2024-02-15T00:28:05;17.13;;;7.60;;
56752;SDS011;42627;42.646;23.642;2024-02-15T00:30:08;19.88;;;9.13;;
56752;SDS011;42627;42.646;23.642;2024-02-15T00:32:09;22.80;;;9.48;;
56752;SDS011;42627;42.646;23.642;2024-02-15T00:36:11;29.02;;;11.02;;
56752;SDS011;42627;42.646;23.642;2024-02-15T00:40:23;25.52;;;12.65;;
56752;SDS011;42627;42.646;23.642;2024-02-15T00:42:40;22.02;;;11.60;;
56752;SDS011;42627;42.646;23.642;2024-02-15T00:44:44;19.70;;;10.13;;
56752;SDS011;42627;42.646;23.642;2024-02-15T00:46:45;17.98;;;9.10;;
56752;SDS011;42627;42.646;23.642;2024-02-15T00:48:47;14.50;;;7.05;;
56752;SDS011;42627;42.646;23.642;2024-02-15T00:50:51;15.55;;;7.70;;
56752;SDS011;42627;42.646;23.642;2024-02-15T00:53:05;16.13;;;7.38;;
56752;SDS011;42627;42.646;23.642;2024-02-15T00:57:32;10.05;;;6.10;;
56752;SDS011;42627;42.646;23.642;2024-02-15T00:59:42;16.25;;;8.32;;
56752;SDS011;42627;42.646;23.642;2024-02-15T01:01:43;20.40;;;9.88;;
56752;SDS011;42627;42.646;23.642;2024-02-15T01:03:44;17.05;;;7.88;;
56752;SDS011;42627;42.646;23.642;2024-02-15T01:05:45;14.90;;;7.75;;
56752;SDS011;42627;42.646;23.642;2024-02-15T01:07:46;15.65;;;7.10;;
56752;SDS011;42627;42.646;23.642;2024-02-15T01:09:49;15.43;;;6.47;;
56752;SDS011;42627;42.646;23.642;2024-02-15T01:11:52;26.75;;;11.43;;
56752;SDS011;42627;42.646;23.642;2024-02-15T01:13:54;45.53;;;14.25;;
56752;SDS011;42627;42.646;23.642;2024-02-15T01:15:55;18.33;;;8.75;;
56752;SDS011;42627;42.646;23.642;2024-02-15T01:17:57;17.73;;;8.20;;
56752;SDS011;42627;42.646;23.642;2024-02-15T01:19:57;14.80;;;7.72;;
56752;SDS011;42627;42.646;23.642;2024-02-15T01:22:17;27.00;;;9.80;;
56752;SDS011;42627;42.646;23.642;2024-02-15T01:24:27;20.42;;;8.48;;
56752;SDS011;42627;42.646;23.642;2024-02-15T01:26:28;19.88;;;7.95;;
56752;SDS011;42627;42.646;23.642;2024-02-15T01:28:32;15.45;;;6.70;;
56752;SDS011;42627;42.646;23.642;2024-02-15T01:30:33;16.00;;;7.47;;
56752;SDS011;42627;42.646;23.642;2024-02-15T01:32:34;14.13;;;7.65;;
56752;SDS011;42627;42.646;23.642;2024-02-15T01:34:35;18.60;;;8.00;;
56752;SDS011;42627;42.646;23.642;2024-02-15T01:36:36;17.77;;;7.82;;
56752;SDS011;42627;42.646;23.642;2024-02-15T01:38:37;17.65;;;7.80;;
56752;SDS011;42627;42.646;23.642;2024-02-15T01:42:49;16.45;;;7.65;;
56752;SDS011;42627;42.646;23.642;2024-02-15T01:44:50;18.90;;;9.52;;
56752;SDS011;42627;42.646;23.642;2024-02-15T01:46:52;15.50;;;7.10;;
56752;SDS011;42627;42.646;23.642;2024-02-15T01:48:54;21.08;;;10.27;;
56752;SDS011;42627;42.646;23.642;2024-02-15T01:51:03;19.45;;;8.93;;
56752;SDS011;42627;42.646;23.642;2024-02-15T01:53:06;13.05;;;5.93;;
56752;SDS011;42627;42.646;23.642;2024-02-15T01:55:14;18.80;;;7.07;;
56752;SDS011;42627;42.646;23.642;2024-02-15T01:57:25;19.52;;;7.28;;
56752;SDS011;42627;42.646;23.642;2024-02-15T01:59:35;19.55;;;7.10;;
56752;SDS011;42627;42.646;23.642;2024-02-15T02:01:51;13.00;;;6.18;;
56752;SDS011;42627;42.646;23.642;2024-02-15T02:03:55;13.88;;;6.55;;
56752;SDS011;42627;42.646;23.642;2024-02-15T02:06:05;13.43;;;6.50;;
56752;SDS011;42627;42.646;23.642;2024-02-15T02:10:20;15.15;;;7.22;;
56752;SDS011;42627;42.646;23.642;2024-02-15T02:14:32;11.70;;;5.28;;
56752;SDS011;42627;42.646;23.642;2024-02-15T02:16:33;10.90;;;5.93;;
56752;SDS011;42627;42.646;23.642;2024-02-15T02:18:39;13.70;;;6.10;;
56752;SDS011;42627;42.646;23.642;2024-02-15T02:20:40;14.88;;;6.05;;
56752;SDS011;42627;42.646;23.642;2024-02-15T02:22:41;12.07;;;6.35;;
56752;SDS011;42627;42.646;23.642;2024-02-15T02:24:56;11.13;;;6.07;;
56752;SDS011;42627;42.646;23.642;2024-02-15T02:26:58;12.65;;;6.13;;
56752;SDS011;42627;42.646;23.642;2024-02-15T02:29:00;13.13;;;6.93;;
56752;SDS011;42627;42.646;23.642;2024-02-15T02:33:33;12.77;;;6.03;;
56752;SDS011;42627;42.646;23.642;2024-02-15T02:35:40;10.98;;;5.93;;
56752;SDS011;42627;42.646;23.642;2024-02-15T02:37:41;14.00;;;6.05;;
56752;SDS011;42627;42.646;23.642;2024-02-15T02:39:49;16.92;;;8.35;;
56752;SDS011;42627;42.646;23.642;2024-02-15T02:41:50;16.52;;;7.47;;
56752;SDS011;42627;42.646;23.642;2024-02-15T02:43:55;12.27;;;5.65;;
56752;SDS011;42627;42.646;23.642;2024-02-15T02:45:56;11.73;;;6.38;;
56752;SDS011;42627;42.646;23.642;2024-02-15T02:47:57;11.07;;;5.78;;
56752;SDS011;42627;42.646;23.642;2024-02-15T02:50:10;12.65;;;5.72;;
56752;SDS011;42627;42.646;23.642;2024-02-15T02:52:12;15.65;;;6.38;;
56752;SDS011;42627;42.646;23.642;2024-02-15T02:54:13;17.13;;;6.70;;
56752;SDS011;42627;42.646;23.642;2024-02-15T02:56:15;13.70;;;5.78;;
56752;SDS011;42627;42.646;23.642;2024-02-15T02:58:16;16.00;;;6.82;;
56752;SDS011;42627;42.646;23.642;2024-02-15T03:00:24;14.60;;;6.20;;
56752;SDS011;42627;42.646;23.642;2024-02-15T03:02:30;11.48;;;5.80;;
56752;SDS011;42627;42.646;23.642;2024-02-15T03:04:40;14.15;;;6.28;;
56752;SDS011;42627;42.646;23.642;2024-02-15T03:06:41;16.08;;;6.70;;
56752;SDS011;42627;42.646;23.642;2024-02-15T03:08:42;13.30;;;5.72;;
56752;SDS011;42627;42.646;23.642;2024-02-15T03:10:44;11.20;;;5.45;;
56752;SDS011;42627;42.646;23.642;2024-02-15T03:12:45;11.98;;;5.97;;
56752;SDS011;42627;42.646;23.642;2024-02-15T03:14:49;14.32;;;6.53;;
56752;SDS011;42627;42.646;23.642;2024-02-15T03:16:50;17.42;;;6.35;;
56752;SDS011;42627;42.646;23.642;2024-02-15T03:19:00;12.57;;;6.32;;
56752;SDS011;42627;42.646;23.642;2024-02-15T03:21:04;17.55;;;6.93;;
56752;SDS011;42627;42.646;23.642;2024-02-15T03:23:05;14.70;;;6.32;;
56752;SDS011;42627;42.646;23.642;2024-02-15T03:25:07;10.65;;;6.03;;
56752;SDS011;42627;42.646;23.642;2024-02-15T03:27:08;17.58;;;6.03;;
56752;SDS011;42627;42.646;23.642;2024-02-15T03:29:12;14.85;;;6.18;;
56752;SDS011;42627;42.646;23.642;2024-02-15T03:31:14;15.55;;;6.72;;
56752;SDS011;42627;42.646;23.642;2024-02-15T03:33:15;16.80;;;6.53;;
56752;SDS011;42627;42.646;23.642;2024-02-15T03:35:28;14.43;;;6.00;;
56752;SDS011;42627;42.646;23.642;2024-02-15T03:37:40;13.65;;;6.07;;
56752;SDS011;42627;42.646;23.642;2024-02-15T03:39:51;13.73;;;7.63;;
56752;SDS011;42627;42.646;23.642;2024-02-15T03:41:52;16.23;;;6.10;;
56752;SDS011;42627;42.646;23.642;2024-02-15T03:43:53;13.50;;;6.50;;
56752;SDS011;42627;42.646;23.642;2024-02-15T03:45:54;12.73;;;6.88;;
56752;SDS011;42627;42.646;23.642;2024-02-15T03:47:55;15.60;;;7.53;;
56752;SDS011;42627;42.646;23.642;2024-02-15T03:49:56;14.98;;;6.47;;
56752;SDS011;42627;42.646;23.642;2024-02-15T03:51:58;14.15;;;7.45;;
56752;SDS011;42627;42.646;23.642;2024-02-15T03:54:20;19.52;;;7.80;;
56752;SDS011;42627;42.646;23.642;2024-02-15T03:56:23;13.00;;;6.43;;
56752;SDS011;42627;42.646;23.642;2024-02-15T03:58:24;14.68;;;6.88;;
56752;SDS011;42627;42.646;23.642;2024-02-15T04:00:25;13.60;;;6.40;;
56752;SDS011;42627;42.646;23.642;2024-02-15T04:02:26;15.02;;;6.95;;
56752;SDS011;42627;42.646;23.642;2024-02-15T04:04:28;12.82;;;7.07;;
56752;SDS011;42627;42.646;23.642;2024-02-15T04:06:30;13.95;;;6.97;;
56752;SDS011;42627;42.646;23.642;2024-02-15T04:08:33;13.82;;;6.53;;
56752;SDS011;42627;42.646;23.642;2024-02-15T04:10:44;15.73;;;7.03;;
56752;SDS011;42627;42.646;23.642;2024-02-15T04:12:46;13.77;;;7.50;;
56752;SDS011;42627;42.646;23.642;2024-02-15T04:14:47;15.23;;;6.82;;
56752;SDS011;42627;42.646;23.642;2024-02-15T04:16:48;17.27;;;9.10;;
56752;SDS011;42627;42.646;23.642;2024-02-15T04:18:49;21.88;;;7.80;;
56752;SDS011;42627;42.646;23.642;2024-02-15T04:20:50;23.60;;;9.20;;
56752;SDS011;42627;42.646;23.642;2024-02-15T04:22:52;21.42;;;9.25;;
56752;SDS011;42627;42.646;23.642;2024-02-15T04:27:32;16.85;;;7.78;;
56752;SDS011;42627;42.646;23.642;2024-02-15T04:29:42;19.15;;;8.50;;
56752;SDS011;42627;42.646;23.642;2024-02-15T04:31:44;14.43;;;8.00;;
56752;SDS011;42627;42.646;23.642;2024-02-15T04:33:45;16.25;;;7.28;;
56752;SDS011;42627;42.646;23.642;2024-02-15T04:35:49;14.52;;;7.45;;
56752;SDS011;42627;42.646;23.642;2024-02-15T04:37:51;16.02;;;8.20;;
56752;SDS011;42627;42.646;23.642;2024-02-15T04:39:53;15.10;;;7.53;;
56752;SDS011;42627;42.646;23.642;2024-02-15T04:41:54;15.02;;;7.43;;
56752;SDS011;42627;42.646;23.642;2024-02-15T04:44:07;15.13;;;8.48;;
56752;SDS011;42627;42.646;23.642;2024-02-15T04:48:14;15.32;;;6.45;;
56752;SDS011;42627;42.646;23.642;2024-02-15T04:50:16;13.35;;;7.60;;
56752;SDS011;42627;42.646;23.642;2024-02-15T04:52:18;18.55;;;7.57;;
56752;SDS011;42627;42.646;23.642;2024-02-15T04:54:31;13.63;;;6.30;;
56752;SDS011;42627;42.646;23.642;2024-02-15T04:56:42;15.20;;;7.35;;
56752;SDS011;42627;42.646;23.642;2024-02-15T04:58:52;18.98;;;7.75;;
56752;SDS011;42627;42.646;23.642;2024-02-15T05:05:20;29.27;;;9.93;;
56752;SDS011;42627;42.646;23.642;2024-02-15T05:07:24;21.40;;;8.00;;
56752;SDS011;42627;42.646;23.642;2024-02-15T05:09:25;20.67;;;7.93;;
56752;SDS011;42627;42.646;23.642;2024-02-15T05:11:26;20.63;;;7.88;;
56752;SDS011;42627;42.646;23.642;2024-02-15T05:15:47;31.00;;;11.70;;
56752;SDS011;42627;42.646;23.642;2024-02-15T05:17:49;19.27;;;8.80;;
56752;SDS011;42627;42.646;23.642;2024-02-15T05:19:53;22.50;;;10.07;;
56752;SDS011;42627;42.646;23.642;2024-02-15T05:24:09;19.23;;;8.48;;
56752;SDS011;42627;42.646;23.642;2024-02-15T05:26:11;21.40;;;8.52;;
56752;SDS011;42627;42.646;23.642;2024-02-15T05:28:23;16.17;;;7.30;;
56752;SDS011;42627;42.646;23.642;2024-02-15T05:33:01;27.98;;;11.05;;
56752;SDS011;42627;42.646;23.642;2024-02-15T05:35:11;39.47;;;14.38;;
56752;SDS011;42627;42.646;23.642;2024-02-15T05:37:12;76.82;;;20.50;;
56752;SDS011;42627;42.646;23.642;2024-02-15T05:39:13;55.03;;;19.38;;
56752;SDS011;42627;42.646;23.642;2024-02-15T05:41:14;58.55;;;19.33;;
56752;SDS011;42627;42.646;23.642;2024-02-15T05:43:16;33.70;;;13.27;;
56752;SDS011;42627;42.646;23.642;2024-02-15T05:47:32;21.13;;;8.43;;
56752;SDS011;42627;42.646;23.642;2024-02-15T05:49:33;18.55;;;8.63;;
56752;SDS011;42627;42.646;23.642;2024-02-15T05:51:34;15.55;;;7.95;;
56752;SDS011;42627;42.646;23.642;2024-02-15T05:53:37;18.83;;;6.20;;
56752;SDS011;42627;42.646;23.642;2024-02-15T05:55:38;23.33;;;10.07;;
56752;SDS011;42627;42.646;23.642;2024-02-15T05:57:44;27.60;;;11.98;;
56752;SDS011;42627;42.646;23.642;2024-02-15T05:59:45;20.15;;;9.65;;
56752;SDS011;42627;42.646;23.642;2024-02-15T06:01:47;20.33;;;7.10;;
56752;SDS011;42627;42.646;23.642;2024-02-15T06:03:58;18.52;;;8.45;;
56752;SDS011;42627;42.646;23.642;2024-02-15T06:06:09;15.02;;;8.02;;
56752;SDS011;42627;42.646;23.642;2024-02-15T06:08:26;18.40;;;8.25;;
56752;SDS011;42627;42.646;23.642;2024-02-15T06:10:29;18.92;;;8.23;;
56752;SDS011;42627;42.646;23.642;2024-02-15T06:12:30;25.42;;;10.13;;
56752;SDS011;42627;42.646;23.642;2024-02-15T06:14:32;22.25;;;9.32;;
56752;SDS011;42627;42.646;23.642;2024-02-15T06:16:33;30.60;;;9.90;;
56752;SDS011;42627;42.646;23.642;2024-02-15T06:18:34;18.50;;;9.00;;
56752;SDS011;42627;42.646;23.642;2024-02-15T06:20:35;26.10;;;11.35;;
56752;SDS011;42627;42.646;23.642;2024-02-15T06:22:37;30.38;;;12.88;;
56752;SDS011;42627;42.646;23.642;2024-02-15T06:24:38;22.05;;;10.10;;
56752;SDS011;42627;42.646;23.642;2024-02-15T06:26:45;20.35;;;9.32;;
56752;SDS011;42627;42.646;23.642;2024-02-15T06:28:49;20.50;;;9.85;;
56752;SDS011;42627;42.646;23.642;2024-02-15T06:31:08;19.20;;;8.82;;
56752;SDS011;42627;42.646;23.642;2024-02-15T06:33:31;18.33;;;8.40;;
56752;SDS011;42627;42.646;23.642;2024-02-15T06:35:50;23.42;;;8.00;;
56752;SDS011;42627;42.646;23.642;2024-02-15T06:38:19;18.55;;;7.65;;
56752;SDS011;42627;42.646;23.642;2024-02-15T06:40:51;13.75;;;6.43;;
56752;SDS011;42627;42.646;23.642;2024-02-15T06:43:00;15.85;;;7.25;;
56752;SDS011;42627;42.646;23.642;2024-02-15T06:45:01;14.98;;;6.72;;
56752;SDS011;42627;42.646;23.642;2024-02-15T06:47:02;14.27;;;6.03;;
56752;SDS011;42627;42.646;23.642;2024-02-15T06:49:03;14.05;;;6.80;;
56752;SDS011;42627;42.646;23.642;2024-02-15T06:51:07;12.30;;;6.82;;
56752;SDS011;42627;42.646;23.642;2024-02-15T06:53:20;15.65;;;7.65;;
56752;SDS011;42627;42.646;23.642;2024-02-15T06:55:21;17.13;;;5.88;;
56752;SDS011;42627;42.646;23.642;2024-02-15T07:50:16;15.82;;;6.85;;
56752;SDS011;42627;42.646;23.642;2024-02-15T07:52:20;21.08;;;6.97;;
56752;SDS011;42627;42.646;23.642;2024-02-15T07:54:22;16.60;;;6.90;;
56752;SDS011;42627;42.646;23.642;2024-02-15T07:56:23;16.23;;;8.45;;
56752;SDS011;42627;42.646;23.642;2024-02-15T07:58:24;15.52;;;7.47;;
56752;SDS011;42627;42.646;23.642;2024-02-15T08:00:25;15.77;;;7.15;;
56752;SDS011;42627;42.646;23.642;2024-02-15T08:02:27;24.33;;;7.63;;
56752;SDS011;42627;42.646;23.642;2024-02-15T08:04:28;18.83;;;7.80;;
56752;SDS011;42627;42.646;23.642;2024-02-15T08:06:29;18.10;;;7.85;;
56752;SDS011;42627;42.646;23.642;2024-02-15T08:08:51;18.15;;;7.55;;
56752;SDS011;42627;42.646;23.642;2024-02-15T08:10:52;19.10;;;6.82;;
56752;SDS011;42627;42.646;23.642;2024-02-15T08:12:53;17.25;;;6.20;;
56752;SDS011;42627;42.646;23.642;2024-02-15T08:14:57;15.63;;;7.07;;
56752;SDS011;42627;42.646;23.642;2024-02-15T08:16:59;15.70;;;6.63;;
56752;SDS011;42627;42.646;23.642;2024-02-15T08:19:00;15.18;;;7.18;;
56752;SDS011;42627;42.646;23.642;2024-02-15T08:21:03;9.13;;;5.78;;
56752;SDS011;42627;42.646;23.642;2024-02-15T08:23:04;17.40;;;6.15;;
56752;SDS011;42627;42.646;23.642;2024-02-15T08:25:11;13.48;;;6.10;;
56752;SDS011;42627;42.646;23.642;2024-02-15T08:27:12;13.63;;;6.15;;
56752;SDS011;42627;42.646;23.642;2024-02-15T08:29:16;11.82;;;6.70;;
56752;SDS011;42627;42.646;23.642;2024-02-15T08:31:17;12.45;;;5.93;;
56752;SDS011;42627;42.646;23.642;2024-02-15T08:33:19;11.52;;;5.70;;
56752;SDS011;42627;42.646;23.642;2024-02-15T08:35:20;13.35;;;5.93;;
56752;SDS011;42627;42.646;23.642;2024-02-15T08:37:21;11.88;;;5.65;;
56752;SDS011;42627;42.646;23.642;2024-02-15T08:39:22;12.65;;;6.32;;
56752;SDS011;42627;42.646;23.642;2024-02-15T08:41:23;15.20;;;5.28;;
56752;SDS011;42627;42.646;23.642;2024-02-15T08:43:26;14.18;;;5.97;;
56752;SDS011;42627;42.646;23.642;2024-02-15T08:45:27;16.67;;;6.32;;
56752;SDS011;42627;42.646;23.642;2024-02-15T08:47:28;11.60;;;6.07;;
56752;SDS011;42627;42.646;23.642;2024-02-15T08:49:29;12.30;;;5.80;;
56752;SDS011;42627;42.646;23.642;2024-02-15T08:51:31;8.45;;;5.47;;
56752;SDS011;42627;42.646;23.642;2024-02-15T08:53:32;9.55;;;5.28;;
56752;SDS011;42627;42.646;23.642;2024-02-15T08:55:33;12.80;;;5.80;;
56752;SDS011;42627;42.646;23.642;2024-02-15T08:57:36;13.15;;;4.82;;
56752;SDS011;42627;42.646;23.642;2024-02-15T08:59:41;10.57;;;5.18;;
56752;SDS011;42627;42.646;23.642;2024-02-15T09:01:42;13.07;;;4.95;;
56752;SDS011;42627;42.646;23.642;2024-02-15T09:03:43;17.58;;;6.70;;
56752;SDS011;42627;42.646;23.642;2024-02-15T09:05:45;13.18;;;4.85;;
56752;SDS011;42627;42.646;23.642;2024-02-15T09:07:46;10.98;;;5.70;;
56752;SDS011;42627;42.646;23.642;2024-02-15T09:09:47;11.55;;;5.22;;
56752;SDS011;42627;42.646;23.642;2024-02-15T09:11:49;17.77;;;5.82;;
56752;SDS011;42627;42.646;23.642;2024-02-15T09:13:50;13.20;;;5.28;;
56752;SDS011;42627;42.646;23.642;2024-02-15T09:15:51;12.43;;;6.75;;
56752;SDS011;42627;42.646;23.642;2024-02-15T09:17:52;12.38;;;5.60;;
56752;SDS011;42627;42.646;23.642;2024-02-15T09:19:54;9.93;;;5.40;;
56752;SDS011;42627;42.646;23.642;2024-02-15T09:21:55;12.75;;;5.68;;
56752;SDS011;42627;42.646;23.642;2024-02-15T09:23:56;13.90;;;6.20;;
56752;SDS011;42627;42.646;23.642;2024-02-15T09:25:57;13.18;;;7.30;;
56752;SDS011;42627;42.646;23.642;2024-02-15T09:27:59;20.45;;;6.90;;
56752;SDS011;42627;42.646;23.642;2024-02-15T09:30:00;12.70;;;6.25;;
56752;SDS011;42627;42.646;23.642;2024-02-15T09:32:01;13.90;;;5.78;;
56752;SDS011;42627;42.646;23.642;2024-02-15T09:34:02;11.00;;;5.75;;
56752;SDS011;42627;42.646;23.642;2024-02-15T09:36:06;15.65;;;6.75;;
56752;SDS011;42627;42.646;23.642;2024-02-15T09:38:07;35.53;;;10.52;;
56752;SDS011;42627;42.646;23.642;2024-02-15T09:40:10;15.30;;;7.35;;
56752;SDS011;42627;42.646;23.642;2024-02-15T09:42:11;11.95;;;6.13;;
56752;SDS011;42627;42.646;23.642;2024-02-15T09:44:13;12.25;;;5.72;;
56752;SDS011;42627;42.646;23.642;2024-02-15T09:46:14;11.38;;;4.78;;
56752;SDS011;42627;42.646;23.642;2024-02-15T09:48:15;20.08;;;8.05;;
56752;SDS011;42627;42.646;23.642;2024-02-15T09:50:18;12.38;;;6.40;;
56752;SDS011;42627;42.646;23.642;2024-02-15T09:52:19;13.00;;;5.90;;
56752;SDS011;42627;42.646;23.642;2024-02-15T09:54:20;11.57;;;4.75;;
56752;SDS011;42627;42.646;23.642;2024-02-15T09:56:22;44.70;;;15.60;;
56752;SDS011;42627;42.646;23.642;2024-02-15T09:58:25;10.85;;;4.97;;
56752;SDS011;42627;42.646;23.642;2024-02-15T10:00:26;12.10;;;5.20;;
56752;SDS011;42627;42.646;23.642;2024-02-15T10:02:27;10.57;;;4.80;;
56752;SDS011;42627;42.646;23.642;2024-02-15T10:04:29;11.93;;;5.45;;
56752;SDS011;42627;42.646;23.642;2024-02-15T10:06:30;9.80;;;4.78;;
56752;SDS011;42627;42.646;23.642;2024-02-15T10:08:31;25.92;;;9.38;;
56752;SDS011;42627;42.646;23.642;2024-02-15T10:10:32;31.98;;;10.70;;
56752;SDS011;42627;42.646;23.642;2024-02-15T10:12:38;14.95;;;5.82;;
56752;SDS011;42627;42.646;23.642;2024-02-15T10:14:44;11.18;;;4.60;;
56752;SDS011;42627;42.646;23.642;2024-02-15T10:16:49;12.30;;;5.75;;
56752;SDS011;42627;42.646;23.642;2024-02-15T10:18:50;10.52;;;5.32;;
56752;SDS011;42627;42.646;23.642;2024-02-15T10:20:58;11.50;;;4.25;;
56752;SDS011;42627;42.646;23.642;2024-02-15T10:25:12;14.55;;;6.88;;
56752;SDS011;42627;42.646;23.642;2024-02-15T10:27:14;61.58;;;20.50;;
56752;SDS011;42627;42.646;23.642;2024-02-15T10:29:23;26.92;;;10.60;;
56752;SDS011;42627;42.646;23.642;2024-02-15T10:31:25;11.82;;;5.70;;
56752;SDS011;42627;42.646;23.642;2024-02-15T10:33:26;15.57;;;7.03;;
56752;SDS011;42627;42.646;23.642;2024-02-15T10:35:31;14.57;;;6.33;;
56752;SDS011;42627;42.646;23.642;2024-02-15T10:37:36;14.30;;;6.88;;
56752;SDS011;42627;42.646;23.642;2024-02-15T10:39:37;9.07;;;4.55;;
56752;SDS011;42627;42.646;23.642;2024-02-15T10:41:38;11.77;;;5.20;;
56752;SDS011;42627;42.646;23.642;2024-02-15T10:43:40;13.70;;;5.40;;
56752;SDS011;42627;42.646;23.642;2024-02-15T10:45:43;14.95;;;8.10;;
56752;SDS011;42627;42.646;23.642;2024-02-15T10:47:45;12.48;;;6.57;;
56752;SDS011;42627;42.646;23.642;2024-02-15T10:49:47;11.13;;;5.35;;
56752;SDS011;42627;42.646;23.642;2024-02-15T10:51:54;9.10;;;4.95;;
56752;SDS011;42627;42.646;23.642;2024-02-15T10:54:01;13.32;;;5.45;;
56752;SDS011;42627;42.646;23.642;2024-02-15T10:56:12;12.07;;;5.00;;
56752;SDS011;42627;42.646;23.642;2024-02-15T10:58:18;8.68;;;4.20;;
56752;SDS011;42627;42.646;23.642;2024-02-15T11:00:21;9.70;;;4.35;;
56752;SDS011;42627;42.646;23.642;2024-02-15T11:02:33;11.13;;;4.35;;
56752;SDS011;42627;42.646;23.642;2024-02-15T11:04:37;12.38;;;4.72;;
56752;SDS011;42627;42.646;23.642;2024-02-15T11:06:39;10.55;;;4.68;;
56752;SDS011;42627;42.646;23.642;2024-02-15T11:08:43;8.68;;;4.13;;
56752;SDS011;42627;42.646;23.642;2024-02-15T11:10:45;7.70;;;3.75;;
56752;SDS011;42627;42.646;23.642;2024-02-15T11:12:47;8.13;;;4.25;;
56752;SDS011;42627;42.646;23.642;2024-02-15T11:14:48;11.18;;;4.10;;
56752;SDS011;42627;42.646;23.642;2024-02-15T11:17:09;10.20;;;3.95;;
56752;SDS011;42627;42.646;23.642;2024-02-15T11:22:11;10.70;;;4.55;;
56752;SDS011;42627;42.646;23.642;2024-02-15T11:24:27;9.93;;;4.72;;
56752;SDS011;42627;42.646;23.642;2024-02-15T11:32:19;10.38;;;3.92;;
56752;SDS011;42627;42.646;23.642;2024-02-15T11:42:54;11.57;;;4.85;;
56752;SDS011;42627;42.646;23.642;2024-02-15T11:47:58;7.75;;;4.00;;
56752;SDS011;42627;42.646;23.642;2024-02-15T11:50:01;6.75;;;3.20;;
56752;SDS011;42627;42.646;23.642;2024-02-15T11:52:09;7.88;;;3.20;;
56752;SDS011;42627;42.646;23.642;2024-02-15T11:54:26;7.72;;;4.32;;
56752;SDS011;42627;42.646;23.642;2024-02-15T11:56:51;8.02;;;3.40;;
56752;SDS011;42627;42.646;23.642;2024-02-15T11:59:20;10.93;;;3.47;;
56752;SDS011;42627;42.646;23.642;2024-02-15T12:01:53;7.03;;;3.65;;
56752;SDS011;42627;42.646;23.642;2024-02-15T12:09:40;10.48;;;4.25;;
56752;SDS011;42627;42.646;23.642;2024-02-15T12:17:23;7.18;;;3.88;;
56752;SDS011;42627;42.646;23.642;2024-02-15T12:19:52;6.07;;;3.67;;
56752;SDS011;42627;42.646;23.642;2024-02-15T12:24:43;10.65;;;4.55;;
56752;SDS011;42627;42.646;23.642;2024-02-15T12:26:52;9.25;;;4.82;;
56752;SDS011;42627;42.646;23.642;2024-02-15T12:29:21;11.45;;;4.15;;
56752;SDS011;42627;42.646;23.642;2024-02-15T12:31:48;7.00;;;3.85;;
56752;SDS011;42627;42.646;23.642;2024-02-15T12:34:06;15.80;;;8.15;;
56752;SDS011;42627;42.646;23.642;2024-02-15T12:36:07;9.43;;;3.85;;
56752;SDS011;42627;42.646;23.642;2024-02-15T12:38:09;13.75;;;6.70;;
56752;SDS011;42627;42.646;23.642;2024-02-15T12:40:19;8.88;;;4.53;;
56752;SDS011;42627;42.646;23.642;2024-02-15T12:42:22;8.70;;;4.00;;
56752;SDS011;42627;42.646;23.642;2024-02-15T12:44:23;11.00;;;4.57;;
56752;SDS011;42627;42.646;23.642;2024-02-15T12:46:27;14.45;;;6.32;;
56752;SDS011;42627;42.646;23.642;2024-02-15T12:48:28;6.88;;;3.28;;
56752;SDS011;42627;42.646;23.642;2024-02-15T12:50:29;9.35;;;3.72;;
56752;SDS011;42627;42.646;23.642;2024-02-15T12:52:37;8.02;;;4.10;;
56752;SDS011;42627;42.646;23.642;2024-02-15T12:54:38;13.05;;;5.05;;
56752;SDS011;42627;42.646;23.642;2024-02-15T12:56:41;14.25;;;6.25;;
56752;SDS011;42627;42.646;23.642;2024-02-15T12:58:46;9.73;;;4.05;;
56752;SDS011;42627;42.646;23.642;2024-02-15T13:00:57;6.65;;;3.40;;
56752;SDS011;42627;42.646;23.642;2024-02-15T13:02:59;8.30;;;3.15;;
56752;SDS011;42627;42.646;23.642;2024-02-15T13:05:05;8.87;;;3.37;;
56752;SDS011;42627;42.646;23.642;2024-02-15T13:07:12;9.40;;;3.58;;
56752;SDS011;42627;42.646;23.642;2024-02-15T13:09:27;6.93;;;3.25;;
56752;SDS011;42627;42.646;23.642;2024-02-15T13:11:31;7.63;;;3.95;;
56752;SDS011;42627;42.646;23.642;2024-02-15T13:13:44;7.85;;;3.40;;
56752;SDS011;42627;42.646;23.642;2024-02-15T13:16:13;7.32;;;4.30;;
56752;SDS011;42627;42.646;23.642;2024-02-15T13:18:28;6.55;;;3.63;;
56752;SDS011;42627;42.646;23.642;2024-02-15T13:20:40;8.27;;;3.15;;
56752;SDS011;42627;42.646;23.642;2024-02-15T13:25:37;6.55;;;3.47;;
56752;SDS011;42627;42.646;23.642;2024-02-15T13:28:02;6.30;;;3.45;;
56752;SDS011;42627;42.646;23.642;2024-02-15T13:30:17;8.55;;;3.55;;
56752;SDS011;42627;42.646;23.642;2024-02-15T13:32:37;7.82;;;3.50;;
56752;SDS011;42627;42.646;23.642;2024-02-15T13:42:25;5.07;;;2.90;;
56752;SDS011;42627;42.646;23.642;2024-02-15T13:44:46;6.22;;;2.90;;
56752;SDS011;42627;42.646;23.642;2024-02-15T13:47:18;7.15;;;3.20;;
56752;SDS011;42627;42.646;23.642;2024-02-15T13:49:30;5.97;;;3.25;;
56752;SDS011;42627;42.646;23.642;2024-02-15T13:54:11;4.80;;;2.95;;
56752;SDS011;42627;42.646;23.642;2024-02-15T14:01:39;3.83;;;2.20;;
56752;SDS011;42627;42.646;23.642;2024-02-15T14:04:06;5.45;;;2.30;;
56752;SDS011;42627;42.646;23.642;2024-02-15T14:06:27;4.03;;;2.05;;
56752;SDS011;42627;42.646;23.642;2024-02-15T14:08:49;5.55;;;2.80;;
56752;SDS011;42627;42.646;23.642;2024-02-15T14:10:50;4.32;;;2.17;;
56752;SDS011;42627;42.646;23.642;2024-02-15T14:12:52;5.03;;;2.58;;
56752;SDS011;42627;42.646;23.642;2024-02-15T14:14:57;5.65;;;2.35;;
56752;SDS011;42627;42.646;23.642;2024-02-15T14:16:58;7.68;;;2.13;;
56752;SDS011;42627;42.646;23.642;2024-02-15T14:19:02;4.60;;;2.38;;
56752;SDS011;42627;42.646;23.642;2024-02-15T14:21:03;4.57;;;2.25;;
56752;SDS011;42627;42.646;23.642;2024-02-15T14:23:05;5.43;;;1.88;;
56752;SDS011;42627;42.646;23.642;2024-02-15T14:25:06;5.00;;;2.30;;
56752;SDS011;42627;42.646;23.642;2024-02-15T14:27:07;5.15;;;2.53;;
56752;SDS011;42627;42.646;23.642;2024-02-15T14:29:09;3.75;;;2.22;;
56752;SDS011;42627;42.646;23.642;2024-02-15T14:31:13;7.45;;;2.38;;
56752;SDS011;42627;42.646;23.642;2024-02-15T14:33:37;5.85;;;2.53;;
56752;SDS011;42627;42.646;23.642;2024-02-15T14:35:38;6.82;;;3.05;;
56752;SDS011;42627;42.646;23.642;2024-02-15T14:37:39;6.72;;;2.13;;
56752;SDS011;42627;42.646;23.642;2024-02-15T14:39:40;4.68;;;2.60;;